Time;durP1;ratioP1;P1;durP2;ratioP2;P2;SDS_P1;SDS_P2;PMS_P1;PMS_P2;Temp;Humidity;BMP_temperature;BMP_pressure;BME280_temperature;BME280_humidity;BME280_pressure;Samples;Min_cycle;Max_cycle;Signal;HPM_P1;HPM_P2
2024/01/01 00:00:19;;;;;;;9.73;4.70;;;7.50;1.00;;;;;;5043124;28;20203;-88
2024/01/01 00:02:46;;;;;;;9.87;4.43;;;7.70;1.00;;;;;;5052401;28;20219;-89
2024/01/01 00:05:13;;;;;;;8.57;4.07;;;7.50;1.00;;;;;;5047864;28;20222;-87
2024/01/01 00:07:39;;;;;;;6.43;3.57;;;7.40;1.00;;;;;;5050296;28;20203;-88
2024/01/01 00:10:07;;;;;;;7.13;3.70;;;7.90;1.00;;;;;;5046156;28;20207;-86
2024/01/01 00:12:34;;;;;;;7.03;3.67;;;7.60;1.00;;;;;;5048687;28;20794;-88
2024/01/01 00:15:01;;;;;;;7.03;3.53;;;7.90;1.00;;;;;;5045708;28;20203;-89
2024/01/01 00:17:29;;;;;;;7.77;3.70;;;7.80;1.00;;;;;;5049061;28;20223;-89
2024/01/01 00:19:56;;;;;;;5.63;3.30;;;7.70;1.00;;;;;;5047681;28;20233;-88
2024/01/01 00:22:23;;;;;;;7.67;3.00;;;7.80;1.00;;;;;;5046487;28;20213;-88
2024/01/01 00:24:49;;;;;;;8.23;2.90;;;7.80;1.00;;;;;;5049358;28;20219;-88
2024/01/01 00:27:16;;;;;;;7.27;3.43;;;8.40;1.00;;;;;;5050841;28;20683;-88
2024/01/01 00:29:43;;;;;;;7.20;3.60;;;8.90;1.00;;;;;;5050288;28;20208;-88
2024/01/01 00:32:10;;;;;;;7.60;3.77;;;8.10;1.00;;;;;;5051637;28;20237;-88
2024/01/01 00:34:38;;;;;;;8.97;3.33;;;8.30;1.00;;;;;;5050080;28;20215;-89
2024/01/01 00:37:05;;;;;;;9.13;3.30;;;8.00;1.00;;;;;;5040338;28;20202;-88
2024/01/01 00:39:32;;;;;;;7.43;3.77;;;8.10;1.00;;;;;;5036578;28;20218;-88
2024/01/01 00:41:58;;;;;;;8.43;3.23;;;7.80;1.00;;;;;;5043234;28;20305;-89
2024/01/01 00:44:27;;;;;;;7.30;3.17;;;8.30;1.00;;;;;;5035984;28;20225;-88
2024/01/01 00:46:54;;;;;;;6.43;2.87;;;7.90;1.00;;;;;;5048953;28;20211;-87
2024/01/01 00:49:21;;;;;;;4.97;2.50;;;7.90;1.00;;;;;;5045749;28;20633;-88
2024/01/01 00:51:49;;;;;;;5.63;2.67;;;8.10;1.00;;;;;;5039995;28;20398;-87
2024/01/01 00:54:16;;;;;;;5.50;2.30;;;8.10;1.00;;;;;;5042144;28;20231;-89
2024/01/01 00:56:43;;;;;;;8.53;2.40;;;8.30;1.00;;;;;;5041882;28;20210;-89
2024/01/01 00:59:10;;;;;;;8.83;2.70;;;8.30;1.00;;;;;;5041846;28;20230;-87
2024/01/01 01:01:37;;;;;;;4.97;2.23;;;8.20;1.00;;;;;;5039102;28;20211;-88
2024/01/01 01:04:04;;;;;;;7.03;2.60;;;8.20;1.00;;;;;;5043820;28;20222;-88
2024/01/01 01:06:31;;;;;;;7.57;2.20;;;8.10;1.00;;;;;;5049472;28;20214;-89
2024/01/01 01:08:59;;;;;;;6.23;2.13;;;8.20;1.00;;;;;;5047114;28;20679;-89
2024/01/01 01:11:26;;;;;;;6.30;2.23;;;8.40;1.00;;;;;;5046340;28;20683;-88
2024/01/01 01:13:53;;;;;;;4.23;1.93;;;8.00;1.00;;;;;;5044795;28;20254;-90
2024/01/01 01:16:20;;;;;;;7.03;2.70;;;8.00;1.00;;;;;;5046551;28;20218;-88
2024/01/01 01:18:47;;;;;;;4.50;2.27;;;8.10;1.00;;;;;;5048819;28;20226;-89
2024/01/01 01:21:14;;;;;;;7.80;2.40;;;8.30;1.00;;;;;;5050221;28;20215;-88
2024/01/01 01:23:40;;;;;;;7.20;2.57;;;8.00;1.00;;;;;;5049775;28;20235;-88
2024/01/01 01:26:09;;;;;;;8.43;2.47;;;8.00;1.00;;;;;;5050147;28;20396;-88
2024/01/01 01:28:35;;;;;;;6.63;2.50;;;8.00;1.00;;;;;;5048394;28;20207;-88
2024/01/01 01:31:02;;;;;;;5.47;2.30;;;8.10;1.00;;;;;;5050474;28;20199;-87
2024/01/01 01:33:29;;;;;;;7.90;2.50;;;8.10;1.00;;;;;;5049535;28;20715;-88
2024/01/01 01:35:56;;;;;;;6.57;2.60;;;7.70;1.00;;;;;;5047368;28;20223;-89
2024/01/01 01:38:23;;;;;;;6.43;2.20;;;8.50;1.00;;;;;;5040403;28;20231;-87
2024/01/01 01:40:50;;;;;;;5.97;2.00;;;8.00;1.00;;;;;;5049840;28;20203;-90
2024/01/01 01:43:22;;;;;;;6.27;2.40;;;8.00;1.00;;;;;;5045560;28;20230;-89
2024/01/01 01:45:50;;;;;;;3.87;2.10;;;8.00;1.00;;;;;;5041636;28;20278;-89
2024/01/01 01:48:18;;;;;;;6.17;2.50;;;8.10;1.00;;;;;;5036103;28;20206;-88
2024/01/01 01:50:45;;;;;;;11.27;2.80;;;8.00;1.00;;;;;;5042446;28;20218;-89
2024/01/01 01:53:13;;;;;;;5.07;2.50;;;8.90;1.00;;;;;;5035007;28;20657;-89
2024/01/01 01:55:42;;;;;;;7.37;2.97;;;8.00;1.00;;;;;;5039653;28;20577;-88
2024/01/01 01:58:09;;;;;;;4.80;3.00;;;8.30;1.00;;;;;;5038244;28;20223;-88
2024/01/01 02:00:38;;;;;;;8.67;3.40;;;8.00;1.00;;;;;;5045381;28;20214;-88
2024/01/01 02:03:08;;;;;;;6.13;2.77;;;8.00;1.00;;;;;;5048325;28;20226;-88
2024/01/01 02:05:35;;;;;;;11.70;3.00;;;8.00;1.00;;;;;;5044875;28;20199;-89
2024/01/01 02:08:02;;;;;;;7.60;2.73;;;8.20;1.00;;;;;;5041553;28;20209;-88
2024/01/01 02:10:29;;;;;;;5.17;2.63;;;8.20;1.00;;;;;;5040150;28;20208;-88
2024/01/01 02:12:55;;;;;;;7.47;2.63;;;8.20;1.00;;;;;;5043501;28;20222;-89
2024/01/01 02:15:22;;;;;;;6.07;2.87;;;8.40;1.00;;;;;;5043536;28;20214;-88
2024/01/01 02:17:51;;;;;;;7.40;2.80;;;8.20;1.00;;;;;;5046527;28;20220;-89
2024/01/01 02:20:18;;;;;;;6.90;2.83;;;8.50;1.00;;;;;;5044599;28;20209;-89
2024/01/01 02:22:46;;;;;;;6.00;2.73;;;8.20;1.00;;;;;;5045716;28;20705;-88
2024/01/01 02:25:16;;;;;;;8.73;3.27;;;8.50;1.00;;;;;;5049125;28;20214;-88
2024/01/01 02:27:42;;;;;;;8.00;2.67;;;8.10;1.00;;;;;;5048633;28;20625;-89
2024/01/01 02:30:10;;;;;;;6.10;3.00;;;8.20;1.00;;;;;;5048852;28;20226;-88
2024/01/01 02:32:37;;;;;;;9.50;3.00;;;8.10;1.00;;;;;;5048408;28;20226;-89
2024/01/01 02:35:07;;;;;;;7.63;3.03;;;8.30;1.00;;;;;;5050197;28;20218;-88
2024/01/01 02:37:34;;;;;;;10.20;3.23;;;8.30;1.00;;;;;;5034856;28;20219;-88
2024/01/01 02:40:00;;;;;;;5.33;2.87;;;8.20;1.00;;;;;;5047475;28;20708;-88
2024/01/01 02:42:29;;;;;;;7.13;2.87;;;8.20;1.00;;;;;;5050239;28;20234;-88
2024/01/01 02:44:56;;;;;;;8.63;4.43;;;8.40;1.00;;;;;;5042326;28;20200;-88
2024/01/01 02:47:23;;;;;;;6.83;3.00;;;8.20;1.00;;;;;;5042806;28;20286;-89
2024/01/01 02:49:50;;;;;;;6.97;3.67;;;8.10;1.00;;;;;;5041324;28;20214;-88
2024/01/01 02:52:17;;;;;;;5.20;3.10;;;8.20;1.00;;;;;;5034038;28;20226;-90
2024/01/01 02:54:44;;;;;;;9.03;3.40;;;8.20;1.00;;;;;;5036080;28;20207;-88
2024/01/01 02:57:12;;;;;;;9.87;3.43;;;8.00;1.00;;;;;;5035588;28;20307;-88
2024/01/01 02:59:41;;;;;;;7.80;3.73;;;7.90;1.00;;;;;;5037605;28;20281;-88
2024/01/01 03:02:09;;;;;;;8.13;3.47;;;7.80;1.00;;;;;;5039115;28;20214;-88
2024/01/01 03:04:36;;;;;;;5.43;3.13;;;7.80;1.00;;;;;;5044646;28;20254;-88
2024/01/01 03:07:03;;;;;;;6.63;3.23;;;7.80;1.00;;;;;;5043796;28;20203;-88
2024/01/01 03:09:30;;;;;;;9.60;3.43;;;7.80;1.00;;;;;;5035108;28;20205;-89
2024/01/01 03:11:57;;;;;;;5.07;3.00;;;7.80;1.00;;;;;;5038767;28;20206;-88
2024/01/01 03:14:24;;;;;;;11.07;3.30;;;8.30;1.00;;;;;;5039123;28;20695;-89
2024/01/01 03:16:52;;;;;;;6.57;3.07;;;8.20;1.00;;;;;;5044665;28;20211;-88
2024/01/01 03:19:19;;;;;;;8.60;3.07;;;8.40;1.00;;;;;;5034004;28;20227;-88
2024/01/01 03:21:47;;;;;;;10.03;3.63;;;8.40;1.00;;;;;;5037375;28;20205;-88
2024/01/01 03:24:14;;;;;;;9.03;3.50;;;8.40;1.00;;;;;;5045593;28;20233;-88
2024/01/01 03:26:41;;;;;;;7.30;3.47;;;8.20;1.00;;;;;;5046724;28;20353;-89
2024/01/01 03:29:07;;;;;;;9.53;3.93;;;8.20;1.00;;;;;;5038795;28;20196;-89
2024/01/01 03:31:34;;;;;;;7.17;3.37;;;8.20;1.00;;;;;;5039023;28;20890;-89
2024/01/01 03:34:02;;;;;;;10.23;3.90;;;8.70;1.00;;;;;;5039036;28;20226;-88
2024/01/01 03:36:29;;;;;;;12.27;4.50;;;8.10;1.00;;;;;;5049254;28;20260;-89
2024/01/01 03:38:56;;;;;;;12.37;4.40;;;8.20;1.00;;;;;;5053301;28;20222;-88
2024/01/01 03:41:26;;;;;;;11.67;5.10;;;8.00;1.00;;;;;;5046029;28;20216;-89
2024/01/01 03:43:53;;;;;;;7.67;4.13;;;8.00;1.00;;;;;;5041617;28;20250;-88
2024/01/01 03:46:19;;;;;;;7.17;3.87;;;8.00;1.00;;;;;;5046471;28;20285;-88
2024/01/01 03:48:46;;;;;;;12.00;4.70;;;8.20;1.00;;;;;;5043974;28;20199;-87
2024/01/01 03:51:14;;;;;;;9.63;3.80;;;7.90;1.00;;;;;;5042855;28;20413;-88
2024/01/01 03:53:41;;;;;;;10.33;4.00;;;8.10;1.00;;;;;;5043820;28;20235;-90
2024/01/01 03:56:08;;;;;;;11.60;3.80;;;7.90;1.00;;;;;;5041472;28;20657;-89
2024/01/01 03:58:36;;;;;;;7.97;3.90;;;7.90;1.00;;;;;;5036543;28;20232;-88
2024/01/01 04:01:03;;;;;;;10.40;4.23;;;7.90;1.00;;;;;;5041601;28;20291;-88
2024/01/01 04:03:30;;;;;;;10.07;4.33;;;7.90;1.00;;;;;;5036385;28;20234;-89
2024/01/01 04:05:57;;;;;;;9.87;4.40;;;7.80;1.00;;;;;;5040342;28;20703;-87
2024/01/01 04:08:25;;;;;;;7.87;4.00;;;7.80;1.00;;;;;;5038098;28;20570;-88
2024/01/01 04:10:52;;;;;;;7.57;3.57;;;7.90;1.00;;;;;;5040196;28;20824;-89
2024/01/01 04:13:18;;;;;;;9.87;4.43;;;7.80;1.00;;;;;;5043463;28;20588;-88
2024/01/01 04:15:45;;;;;;;10.77;4.57;;;7.80;1.00;;;;;;5047340;28;20260;-89
2024/01/01 04:18:12;;;;;;;10.00;4.33;;;7.70;1.00;;;;;;5037969;28;20241;-89
2024/01/01 04:20:39;;;;;;;9.13;4.40;;;7.60;1.00;;;;;;5043923;28;20208;-89
2024/01/01 04:23:06;;;;;;;9.73;4.27;;;7.50;1.00;;;;;;5044659;28;20229;-88
2024/01/01 04:25:34;;;;;;;8.30;3.60;;;7.80;1.00;;;;;;5042261;28;20212;-89
2024/01/01 04:28:01;;;;;;;7.50;3.90;;;7.60;1.00;;;;;;5048051;28;20653;-89
2024/01/01 04:30:27;;;;;;;10.43;3.80;;;7.70;1.00;;;;;;5046811;28;20656;-88
2024/01/01 04:32:54;;;;;;;9.87;4.13;;;7.30;1.00;;;;;;5043426;28;20703;-89
2024/01/01 04:35:21;;;;;;;11.40;4.27;;;7.20;1.00;;;;;;5035983;28;20206;-88
2024/01/01 04:37:48;;;;;;;8.07;3.93;;;7.30;1.00;;;;;;5043500;28;20195;-88
2024/01/01 04:40:15;;;;;;;9.83;4.10;;;7.40;1.00;;;;;;5051498;28;20237;-88
2024/01/01 04:42:44;;;;;;;9.27;3.50;;;7.30;1.00;;;;;;5049395;28;20652;-88
2024/01/01 04:45:12;;;;;;;8.43;4.13;;;7.40;1.00;;;;;;5047750;28;20208;-88
2024/01/01 04:47:39;;;;;;;8.23;3.90;;;7.40;1.00;;;;;;5036333;28;20208;-88
2024/01/01 04:50:07;;;;;;;12.30;4.13;;;7.40;1.00;;;;;;5040105;28;20209;-88
2024/01/01 04:52:33;;;;;;;8.63;3.70;;;7.50;1.00;;;;;;5039709;28;20234;-90
2024/01/01 04:55:00;;;;;;;8.37;4.10;;;8.20;1.00;;;;;;5042321;28;20211;-89
2024/01/01 04:57:27;;;;;;;11.27;4.10;;;7.80;1.00;;;;;;5043145;28;20215;-88
2024/01/01 04:59:55;;;;;;;8.30;4.30;;;7.60;1.00;;;;;;5044582;28;20588;-89
2024/01/01 05:02:22;;;;;;;10.07;4.00;;;7.50;1.00;;;;;;5038745;28;20586;-89
2024/01/01 05:04:49;;;;;;;13.13;4.87;;;7.50;1.00;;;;;;5046188;28;20199;-88
2024/01/01 05:07:16;;;;;;;9.23;4.40;;;7.50;1.00;;;;;;5040345;28;20210;-89
2024/01/01 05:09:43;;;;;;;14.77;4.53;;;7.60;1.00;;;;;;5044420;28;20200;-88
2024/01/01 05:12:10;;;;;;;9.77;4.27;;;7.50;1.00;;;;;;5038610;28;20200;-88
2024/01/01 05:14:38;;;;;;;12.00;5.40;;;7.70;1.00;;;;;;5040594;28;20551;-89
2024/01/01 05:17:06;;;;;;;13.33;4.67;;;7.60;1.00;;;;;;5041064;28;20203;-88
2024/01/01 05:19:33;;;;;;;8.60;4.40;;;7.60;1.00;;;;;;5041857;28;20681;-88
2024/01/01 05:22:02;;;;;;;9.90;4.87;;;7.70;1.00;;;;;;5047623;28;20291;-89
2024/01/01 05:24:28;;;;;;;13.37;4.87;;;7.70;1.00;;;;;;5041604;28;20289;-88
2024/01/01 05:26:55;;;;;;;9.20;4.63;;;7.60;1.00;;;;;;5046438;28;20207;-89
2024/01/01 05:29:22;;;;;;;14.83;6.33;;;8.00;1.00;;;;;;5050318;28;20210;-87
2024/01/01 05:31:49;;;;;;;11.83;5.43;;;7.80;1.00;;;;;;5044999;28;20669;-88
2024/01/01 05:34:17;;;;;;;12.20;5.23;;;7.60;1.00;;;;;;5036333;28;20231;-89
2024/01/01 05:36:44;;;;;;;14.73;5.07;;;7.90;1.00;;;;;;5039233;28;20207;-88
2024/01/01 05:39:11;;;;;;;9.37;4.50;;;7.60;1.00;;;;;;5041618;28;20230;-89
2024/01/01 05:41:37;;;;;;;10.03;4.57;;;7.80;1.00;;;;;;5046620;28;20209;-88
2024/01/01 05:44:04;;;;;;;11.40;4.17;;;8.00;1.00;;;;;;5044614;28;20231;-89
2024/01/01 05:46:31;;;;;;;10.50;4.27;;;7.80;1.00;;;;;;5044095;28;20202;-89
2024/01/01 05:48:58;;;;;;;10.67;4.23;;;8.10;1.00;;;;;;5047021;28;20272;-89
2024/01/01 05:51:26;;;;;;;13.10;4.77;;;7.80;1.00;;;;;;5048718;28;20664;-89
2024/01/01 05:53:57;;;;;;;11.27;4.17;;;8.10;1.00;;;;;;5036431;28;20249;-88
2024/01/01 05:56:24;;;;;;;10.10;4.03;;;7.80;1.00;;;;;;5049115;28;20283;-90
2024/01/01 05:58:51;;;;;;;11.60;3.40;;;8.00;1.00;;;;;;5036868;28;20207;-86
2024/01/01 06:01:18;;;;;;;11.00;3.63;;;7.70;99.90;;;;;;5038665;28;20680;-89
2024/01/01 06:03:46;;;;;;;9.10;3.83;;;7.90;99.90;;;;;;5043898;28;20243;-89
2024/01/01 06:06:13;;;;;;;7.70;4.33;;;7.50;1.00;;;;;;5036341;28;20734;-89
2024/01/01 06:08:41;;;;;;;9.47;3.90;;;7.50;1.00;;;;;;5036490;28;20657;-90
2024/01/01 06:11:08;;;;;;;14.33;4.07;;;8.40;1.00;;;;;;5036579;28;20199;-87
2024/01/01 06:13:35;;;;;;;8.90;4.00;;;7.30;99.90;;;;;;5037306;28;20230;-89
2024/01/01 06:16:03;;;;;;;11.07;3.80;;;7.20;99.90;;;;;;5040124;28;20207;-90
2024/01/01 06:18:29;;;;;;;11.73;3.37;;;7.20;1.00;;;;;;5046264;28;20324;-89
2024/01/01 06:20:56;;;;;;;7.13;3.70;;;7.40;1.00;;;;;;5039055;28;20245;-87
2024/01/01 06:23:23;;;;;;;7.13;2.67;;;7.10;1.00;;;;;;5036585;28;20242;-89
2024/01/01 06:25:52;;;;;;;7.43;2.67;;;7.00;1.00;;;;;;5039808;28;20891;-87
2024/01/01 06:28:19;;;;;;;6.93;2.40;;;7.50;1.00;;;;;;5041833;28;20664;-88
2024/01/01 06:30:46;;;;;;;5.07;2.37;;;7.20;1.00;;;;;;5037077;28;20208;-89
2024/01/01 06:33:13;;;;;;;10.10;2.57;;;7.00;1.00;;;;;;5041078;28;20695;-89
2024/01/01 06:35:40;;;;;;;9.50;3.03;;;7.00;1.00;;;;;;5042198;28;20214;-89
2024/01/01 06:38:07;;;;;;;7.60;2.57;;;7.40;1.00;;;;;;5037718;28;20683;-89
2024/01/01 06:40:34;;;;;;;6.73;2.30;;;7.00;1.00;;;;;;5035854;28;20228;-89
2024/01/01 06:43:02;;;;;;;7.23;2.50;;;7.30;1.00;;;;;;5044809;28;20234;-89
2024/01/01 06:45:29;;;;;;;6.17;2.33;;;7.00;1.00;;;;;;5036141;28;20212;-90
2024/01/01 06:47:55;;;;;;;11.27;2.97;;;7.60;1.00;;;;;;5047139;28;20210;-90
2024/01/01 06:50:23;;;;;;;6.27;2.53;;;7.50;1.00;;;;;;5045747;28;20213;-89
2024/01/01 06:52:50;;;;;;;7.90;2.60;;;7.10;1.00;;;;;;5044267;28;20249;-90
2024/01/01 06:55:17;;;;;;;7.13;2.63;;;7.30;1.00;;;;;;5042442;28;20203;-90
2024/01/01 06:57:44;;;;;;;7.27;2.67;;;7.10;1.00;;;;;;5042057;28;20257;-89
2024/01/01 07:00:15;;;;;;;7.17;2.40;;;7.10;1.00;;;;;;5041882;28;20227;-88
2024/01/01 07:02:42;;;;;;;8.40;3.03;;;7.10;1.00;;;;;;5043241;28;20633;-89
2024/01/01 07:05:09;;;;;;;7.80;2.67;;;7.40;1.00;;;;;;5035914;28;20207;-89
2024/01/01 07:07:36;;;;;;;11.47;2.50;;;7.00;1.00;;;;;;5036249;28;20203;-89
2024/01/01 07:10:03;;;;;;;9.17;2.10;;;7.00;1.00;;;;;;5034600;28;20210;-88
2024/01/01 07:12:30;;;;;;;6.37;2.00;;;7.00;1.00;;;;;;5036520;28;20645;-90
2024/01/01 07:14:57;;;;;;;8.30;2.20;;;7.10;1.00;;;;;;5040597;28;20203;-88
2024/01/01 07:17:25;;;;;;;5.47;2.07;;;7.10;1.00;;;;;;5037588;28;20672;-89
2024/01/01 07:19:52;;;;;;;6.07;2.20;;;7.00;1.00;;;;;;5039175;28;20230;-88
2024/01/01 07:22:19;;;;;;;5.70;2.10;;;7.20;39.70;;;;;;5040137;28;20716;-87
2024/01/01 07:24:46;;;;;;;4.53;2.00;;;7.30;65.60;;;;;;5039716;28;20199;-88
2024/01/01 07:27:13;;;;;;;6.00;1.80;;;7.00;99.90;;;;;;5044884;28;20264;-88
2024/01/01 07:29:41;;;;;;;5.03;2.30;;;7.00;99.90;;;;;;5039975;28;20644;-88
2024/01/01 07:32:08;;;;;;;5.53;2.17;;;7.30;1.00;;;;;;5042760;28;20296;-89
2024/01/01 07:34:36;;;;;;;6.20;2.17;;;6.90;1.00;;;;;;5043040;28;20214;-88
2024/01/01 07:37:04;;;;;;;5.23;2.40;;;7.00;1.00;;;;;;5036967;28;20207;-88
2024/01/01 07:39:31;;;;;;;6.77;2.00;;;7.30;1.00;;;;;;5039615;28;20227;-88
2024/01/01 07:41:58;;;;;;;6.53;2.13;;;7.30;99.90;;;;;;5042452;28;20406;-88
2024/01/01 07:44:25;;;;;;;8.77;2.47;;;7.00;99.90;;;;;;5040040;28;20228;-89
2024/01/01 07:46:52;;;;;;;6.10;2.30;;;7.00;19.60;;;;;;5041899;28;20202;-88
2024/01/01 07:49:18;;;;;;;7.70;2.40;;;7.10;1.00;;;;;;5039226;28;20212;-89
2024/01/01 07:51:47;;;;;;;7.27;2.33;;;7.40;1.00;;;;;;5043235;28;20207;-89
2024/01/01 07:54:13;;;;;;;6.33;2.37;;;7.10;1.00;;;;;;5044817;28;20234;-87
2024/01/01 07:56:44;;;;;;;5.63;2.17;;;7.10;81.70;;;;;;5038490;28;20611;-88
2024/01/01 07:59:11;;;;;;;8.37;2.37;;;7.10;99.90;;;;;;5046721;28;20215;-89
2024/01/01 08:01:39;;;;;;;3.70;1.80;;;7.20;1.00;;;;;;5042045;28;20216;-88
2024/01/01 08:04:06;;;;;;;6.23;2.07;;;6.90;99.90;;;;;;5040136;28;20222;-88
2024/01/01 08:06:33;;;;;;;5.17;2.30;;;7.10;99.90;;;;;;5039169;28;20208;-88
2024/01/01 08:09:01;;;;;;;8.30;2.27;;;7.00;99.90;;;;;;5047195;28;20707;-89
2024/01/01 08:11:28;;;;;;;5.57;2.23;;;7.30;1.00;;;;;;5044490;28;20226;-88
2024/01/01 08:13:55;;;;;;;4.87;2.23;;;7.50;1.00;;;;;;5044932;28;20597;-89
2024/01/01 08:16:22;;;;;;;7.53;2.90;;;6.90;28.00;;;;;;5029966;28;20198;-88
2024/01/01 08:18:48;;;;;;;6.60;2.10;;;6.90;1.00;;;;;;5036635;28;20682;-88
2024/01/01 08:21:15;;;;;;;7.30;2.80;;;7.80;1.00;;;;;;5040157;28;20234;-88
2024/01/01 08:23:42;;;;;;;4.07;2.57;;;6.80;99.90;;;;;;5049794;28;20302;-89
2024/01/01 08:26:10;;;;;;;7.20;2.77;;;7.20;1.00;;;;;;5047666;28;20237;-87
2024/01/01 08:28:37;;;;;;;6.97;2.40;;;6.80;1.00;;;;;;5044954;28;20214;-89
2024/01/01 08:31:04;;;;;;;10.17;3.17;;;6.70;1.00;;;;;;5048365;28;20214;-86
2024/01/01 08:33:31;;;;;;;6.73;2.50;;;6.80;1.00;;;;;;5044121;28;20605;-89
2024/01/01 08:35:56;;;;;;;8.53;2.70;;;7.10;1.00;;;;;;5045076;28;20207;-89
2024/01/01 08:38:25;;;;;;;9.17;2.27;;;7.20;1.00;;;;;;5043444;28;20198;-88
2024/01/01 08:40:52;;;;;;;8.00;2.50;;;6.90;1.00;;;;;;5044515;28;20310;-88
2024/01/01 08:43:21;;;;;;;9.47;3.20;;;7.10;1.00;;;;;;5043820;28;20638;-88
2024/01/01 08:45:47;;;;;;;10.90;2.53;;;7.10;99.90;;;;;;5042164;28;20210;-89
2024/01/01 08:48:14;;;;;;;8.17;2.47;;;7.00;1.00;;;;;;5045739;28;20203;-88
2024/01/01 08:50:41;;;;;;;8.53;2.07;;;7.60;1.00;;;;;;5045926;28;20698;-88
2024/01/01 08:53:08;;;;;;;10.93;2.33;;;7.40;99.90;;;;;;5041900;28;20327;-88
2024/01/01 08:55:35;;;;;;;8.57;2.03;;;7.20;1.00;;;;;;5049084;28;20652;-89
2024/01/01 08:58:01;;;;;;;8.23;2.20;;;7.20;1.00;;;;;;5043394;28;20200;-88
2024/01/01 09:00:30;;;;;;;7.90;2.00;;;7.60;99.90;;;;;;5044342;28;20222;-87
2024/01/01 09:02:56;;;;;;;6.97;1.90;;;7.30;1.00;;;;;;5038889;28;20216;-88
2024/01/01 09:05:23;;;;;;;6.63;2.27;;;7.30;1.00;;;;;;5043019;28;20211;-88
2024/01/01 09:07:50;;;;;;;10.20;2.13;;;7.40;1.00;;;;;;5043752;28;20207;-88
2024/01/01 09:10:17;;;;;;;6.00;1.70;;;7.50;99.90;;;;;;5046792;28;20237;-91
2024/01/01 09:12:44;;;;;;;7.83;1.83;;;7.90;99.90;;;;;;5047707;28;20222;-88
2024/01/01 09:15:11;;;;;;;8.90;1.57;;;7.60;99.90;;;;;;5041923;28;20207;-87
2024/01/01 09:17:39;;;;;;;6.27;1.33;;;7.60;1.00;;;;;;5049013;28;20260;-89
2024/01/01 09:20:08;;;;;;;10.40;1.90;;;8.50;1.00;;;;;;5042802;28;20238;-88
2024/01/01 09:22:34;;;;;;;9.37;1.90;;;7.60;1.00;;;;;;5046968;28;20231;-88
2024/01/01 09:25:01;;;;;;;10.40;2.40;;;7.60;1.00;;;;;;5049512;28;20214;-88
2024/01/01 09:27:28;;;;;;;6.10;1.53;;;7.90;99.90;;;;;;5045501;28;20586;-88
2024/01/01 09:29:55;;;;;;;3.90;1.70;;;8.50;99.90;;;;;;5045165;28;20214;-87
2024/01/01 09:32:22;;;;;;;6.13;1.97;;;7.60;1.00;;;;;;5044433;28;20694;-88
2024/01/01 09:34:50;;;;;;;6.60;1.40;;;7.60;99.90;;;;;;5049955;28;20294;-89
2024/01/01 09:37:17;;;;;;;8.23;2.07;;;7.60;1.00;;;;;;5041856;28;20223;-88
2024/01/01 09:39:44;;;;;;;7.57;1.70;;;7.60;99.90;;;;;;5041350;28;20199;-88
2024/01/01 09:42:11;;;;;;;7.60;1.67;;;7.60;99.90;;;;;;5043119;28;20672;-89
2024/01/01 09:44:38;;;;;;;7.27;1.70;;;7.80;99.90;;;;;;5041470;28;20210;-88
2024/01/01 09:47:19;;;;;;;8.43;1.90;;;7.90;99.90;;;;;;5043081;28;20318;-89
2024/01/01 09:49:49;;;;;;;8.53;1.83;;;7.70;99.90;;;;;;5041443;28;20223;-87
2024/01/01 09:52:18;;;;;;;7.60;1.90;;;7.70;99.90;;;;;;5049231;28;20218;-89
2024/01/01 09:54:45;;;;;;;5.67;2.00;;;7.70;99.90;;;;;;5044489;28;20281;-89
2024/01/01 09:57:11;;;;;;;10.00;2.20;;;8.00;99.90;;;;;;5043089;28;20213;-87
2024/01/01 10:00:05;;;;;;;8.93;1.93;;;7.70;99.90;;;;;;5041778;28;20641;-88
2024/01/01 10:02:32;;;;;;;12.40;2.20;;;7.90;1.00;;;;;;5045861;28;20215;-88
2024/01/01 10:05:13;;;;;;;3.73;1.53;;;8.00;1.00;;;;;;5047424;28;20229;-89
2024/01/01 10:08:08;;;;;;;6.00;2.10;;;7.80;1.00;;;;;;5042926;28;20230;-88
2024/01/01 10:10:35;;;;;;;6.93;1.77;;;7.80;1.00;;;;;;5037752;28;20245;-89
2024/01/01 10:13:10;;;;;;;6.00;1.53;;;8.10;1.00;;;;;;5046013;28;20680;-89
2024/01/01 10:15:45;;;;;;;6.73;1.90;;;8.30;99.90;;;;;;5050303;28;20652;-89
2024/01/01 10:18:15;;;;;;;3.77;1.23;;;8.00;99.90;;;;;;5046435;28;20210;-87
2024/01/01 10:20:52;;;;;;;6.83;1.63;;;8.30;99.90;;;;;;5046530;28;20231;-88
2024/01/01 10:23:29;;;;;;;7.93;1.70;;;7.90;99.90;;;;;;5047468;28;20226;-88
2024/01/01 10:26:14;;;;;;;7.70;1.73;;;8.30;99.90;;;;;;5040144;28;20286;-88
2024/01/01 10:28:42;;;;;;;5.63;2.07;;;8.00;85.70;;;;;;5042926;28;20211;-88
2024/01/01 10:31:12;;;;;;;4.93;1.90;;;7.90;99.90;;;;;;5043718;28;20206;-88
2024/01/01 10:33:41;;;;;;;7.20;1.77;;;7.90;99.90;;;;;;5044754;28;20228;-87
2024/01/01 10:36:08;;;;;;;8.40;2.20;;;8.50;99.90;;;;;;5044192;28;20194;-88
2024/01/01 10:38:39;;;;;;;10.37;2.50;;;7.80;1.00;;;;;;5033451;28;20203;-86
2024/01/01 10:41:08;;;;;;;6.43;2.10;;;7.90;1.00;;;;;;5044012;28;20229;-87
2024/01/01 10:43:44;;;;;;;9.47;3.03;;;8.40;1.00;;;;;;5035537;28;20233;-88
2024/01/01 10:46:13;;;;;;;5.60;1.53;;;7.80;1.00;;;;;;5031433;28;20215;-87
2024/01/01 10:48:43;;;;;;;6.93;1.57;;;7.90;61.10;;;;;;5032374;28;20212;-86
2024/01/01 10:51:33;;;;;;;8.03;1.70;;;7.70;1.00;;;;;;5041838;28;20207;-88
2024/01/01 10:54:29;;;;;;;5.87;1.50;;;7.80;26.10;;;;;;5044163;28;20598;-88
2024/01/01 10:57:10;;;;;;;3.40;1.40;;;7.50;1.00;;;;;;5038803;28;20207;-88
2024/01/01 10:59:45;;;;;;;4.53;2.00;;;8.10;1.00;;;;;;5040251;28;20576;-89
2024/01/01 11:02:12;;;;;;;3.73;1.47;;;7.50;1.00;;;;;;5037417;28;20268;-88
2024/01/01 11:04:39;;;;;;;10.37;2.20;;;7.70;1.00;;;;;;5036444;28;20202;-88
2024/01/01 11:07:05;;;;;;;8.63;2.53;;;8.00;1.00;;;;;;5041879;28;20210;-87
2024/01/01 11:09:34;;;;;;;5.20;2.17;;;8.00;1.00;;;;;;5042388;28;20208;-89
2024/01/01 11:12:02;;;;;;;6.80;2.23;;;7.80;1.00;;;;;;5037012;28;20211;-89
2024/01/01 11:14:30;;;;;;;4.60;1.60;;;8.50;1.00;;;;;;5042828;28;20786;-88
2024/01/01 11:16:59;;;;;;;6.33;2.47;;;7.60;1.00;;;;;;5040506;28;20199;-89
2024/01/01 11:19:39;;;;;;;7.17;3.00;;;7.60;1.00;;;;;;5044748;28;20206;-90
2024/01/01 11:22:30;;;;;;;5.47;1.90;;;7.60;99.90;;;;;;5045968;28;20235;-89
2024/01/01 11:25:00;;;;;;;4.43;1.60;;;7.50;1.00;;;;;;5039832;28;20211;-88
2024/01/01 11:27:27;;;;;;;5.67;2.03;;;7.50;1.00;;;;;;5047929;28;20209;-89
2024/01/01 11:29:54;;;;;;;3.77;1.67;;;7.60;1.00;;;;;;5048760;28;20296;-89
2024/01/01 11:32:22;;;;;;;4.53;1.40;;;7.60;1.00;;;;;;5045983;28;20203;-88
2024/01/01 11:35:07;;;;;;;4.17;1.10;;;7.80;1.00;;;;;;5047365;28;20199;-87
2024/01/01 11:37:34;;;;;;;4.87;1.10;;;7.60;1.00;;;;;;5041831;28;20195;-89
2024/01/01 11:40:04;;;;;;;5.80;1.20;;;7.90;1.00;;;;;;5042062;28;20293;-88
2024/01/01 11:42:31;;;;;;;3.27;1.50;;;7.60;1.00;;;;;;5032691;28;20245;-88
2024/01/01 11:45:12;;;;;;;5.87;2.00;;;7.60;1.00;;;;;;5032419;28;20652;-87
2024/01/01 11:47:39;;;;;;;5.60;2.00;;;7.60;99.90;;;;;;5035609;28;20226;-87
2024/01/01 11:50:07;;;;;;;8.23;2.20;;;8.00;99.90;;;;;;5033418;28;20230;-89
2024/01/01 11:52:35;;;;;;;3.40;1.50;;;7.70;99.90;;;;;;5039518;28;20235;-88
2024/01/01 11:55:03;;;;;;;3.40;1.23;;;7.70;99.90;;;;;;5037008;28;20213;-89
2024/01/01 11:57:30;;;;;;;5.60;1.63;;;7.70;99.90;;;;;;5047436;28;20202;-88
2024/01/01 11:59:58;;;;;;;6.57;1.23;;;8.00;94.90;;;;;;5042961;28;20213;-86
2024/01/01 12:02:25;;;;;;;5.90;1.63;;;8.20;99.90;;;;;;5042512;28;20227;-87
2024/01/01 12:04:54;;;;;;;3.33;1.47;;;8.00;1.00;;;;;;5047084;28;20581;-88
2024/01/01 12:07:28;;;;;;;6.37;1.70;;;8.30;1.00;;;;;;5044524;28;20207;-88
2024/01/01 12:10:08;;;;;;;4.50;2.00;;;7.90;1.00;;;;;;5042749;28;20238;-88
2024/01/01 12:12:35;;;;;;;9.40;1.93;;;7.90;1.00;;;;;;5039712;28;20233;-88
2024/01/01 12:15:12;;;;;;;6.10;1.60;;;8.00;1.00;;;;;;5047522;28;20615;-88
2024/01/01 12:17:43;;;;;;;1.67;1.33;;;8.00;1.00;;;;;;5045592;28;20206;-87
2024/01/01 12:20:11;;;;;;;5.70;1.60;;;8.00;1.00;;;;;;5045467;28;20234;-87
2024/01/01 12:22:38;;;;;;;2.97;1.50;;;8.00;1.00;;;;;;5045858;28;20230;-88
2024/01/01 12:25:07;;;;;;;6.63;1.37;;;8.00;1.00;;;;;;5048359;28;20213;-87
2024/01/01 12:27:33;;;;;;;3.00;1.50;;;8.00;1.00;;;;;;5048312;28;20213;-87
2024/01/01 12:30:00;;;;;;;6.10;1.73;;;8.20;1.00;;;;;;5049967;28;20203;-89
2024/01/01 12:32:29;;;;;;;2.97;1.30;;;8.10;1.00;;;;;;5050573;28;20281;-87
2024/01/01 12:34:56;;;;;;;3.30;1.57;;;8.00;1.00;;;;;;5047302;28;20199;-88
2024/01/01 12:37:23;;;;;;;7.83;2.97;;;8.10;1.00;;;;;;5042849;28;20283;-88
2024/01/01 12:39:50;;;;;;;4.33;1.77;;;8.00;1.00;;;;;;5034140;28;20211;-88
2024/01/01 12:42:19;;;;;;;5.27;1.70;;;8.30;1.00;;;;;;5033797;28;20233;-88
2024/01/01 12:44:46;;;;;;;3.40;1.97;;;8.30;1.00;;;;;;5042208;28;20211;-88
2024/01/01 12:47:14;;;;;;;2.07;1.07;;;8.00;1.00;;;;;;5039508;28;20215;-88
2024/01/01 12:49:40;;;;;;;3.33;2.03;;;8.00;1.00;;;;;;5041411;28;20204;-88
2024/01/01 12:52:07;;;;;;;5.87;1.70;;;8.20;1.00;;;;;;5042346;28;20218;-88
2024/01/01 12:54:34;;;;;;;7.10;2.00;;;9.10;1.00;;;;;;5048589;28;20227;-88
2024/01/01 12:57:01;;;;;;;5.20;2.00;;;8.10;1.00;;;;;;5045778;28;20308;-88
2024/01/01 12:59:30;;;;;;;6.80;2.00;;;8.10;1.00;;;;;;5045161;28;20633;-88
2024/01/01 13:02:06;;;;;;;2.67;1.53;;;8.10;1.00;;;;;;5042344;28;20245;-88
2024/01/01 13:04:33;;;;;;;4.97;1.47;;;8.40;1.00;;;;;;5044208;28;20748;-89
2024/01/01 13:07:00;;;;;;;4.53;1.30;;;8.30;1.00;;;;;;5046603;28;20210;-88
2024/01/01 13:09:27;;;;;;;3.93;1.53;;;8.20;1.00;;;;;;5047968;28;20206;-89